LYTV/TIV METAR and TAF weather

Enter ICAO airport designator
Station Type Date Time Source
LYTV METAR 2020/04/05 15:30 UTC NOAA

LYTV 051530Z 03012G31KT CAVOK 18/M03 Q1016 NOSIG


Station Type Date Time Source
LYTV Decoded METAR 2020/04/05 15:30 UTC NOAA

Tivat, Serbia and Montenegro (LYTV) 42-24N 018-44E 5M
Apr 05, 2020 - 11:30 AM EDT / 2020.04.05 1530 UTC
Wind: from the NNE (030 degrees) at 14 MPH (12 KT) gusting to 36 MPH (31 KT):0
Visibility: greater than 7 mile(s):0
Temperature: 64 F (18 C)
Dew Point: 26 F (-3 C)
Relative Humidity: 23%
Pressure (altimeter): 30.00 in. Hg (1016 hPa)
ob: LYTV 051530Z 03012G31KT CAVOK 18/M03 Q1016 NOSIG
cycle: 15

Station Type Date Time Source
LYTV TAF 2020/04/05 12:21 UTC NOAA

TAF LYTV 051100Z 0512/0612 34014KT CAVOK TX18/0513Z TN10/0603Z
TEMPO 0512/0608 02018G28KT

Example: see airport list